sensor_id;sensor_type;location;lat;lon;timestamp;P1;durP1;ratioP1;P2;durP2;ratioP2
38513;SDS011;24282;48.400;10.808;2024-01-30T00:01:58;11.10;;;6.80;;
38513;SDS011;24282;48.400;10.808;2024-01-30T00:04:24;9.87;;;7.00;;
38513;SDS011;24282;48.400;10.808;2024-01-30T00:06:50;11.47;;;7.13;;
38513;SDS011;24282;48.400;10.808;2024-01-30T00:09:18;10.60;;;7.73;;
38513;SDS011;24282;48.400;10.808;2024-01-30T00:11:44;11.63;;;7.63;;
38513;SDS011;24282;48.400;10.808;2024-01-30T00:14:10;10.37;;;7.27;;
38513;SDS011;24282;48.400;10.808;2024-01-30T00:16:36;10.10;;;6.77;;
38513;SDS011;24282;48.400;10.808;2024-01-30T00:19:02;10.37;;;7.13;;
38513;SDS011;24282;48.400;10.808;2024-01-30T00:21:28;11.30;;;7.40;;
38513;SDS011;24282;48.400;10.808;2024-01-30T00:23:54;13.50;;;9.03;;
38513;SDS011;24282;48.400;10.808;2024-01-30T00:26:20;12.47;;;8.70;;
38513;SDS011;24282;48.400;10.808;2024-01-30T00:28:46;11.50;;;7.70;;
38513;SDS011;24282;48.400;10.808;2024-01-30T00:31:11;9.17;;;6.03;;
38513;SDS011;24282;48.400;10.808;2024-01-30T00:33:38;8.07;;;5.97;;
38513;SDS011;24282;48.400;10.808;2024-01-30T00:36:05;8.50;;;6.10;;
38513;SDS011;24282;48.400;10.808;2024-01-30T00:38:31;8.57;;;6.30;;
38513;SDS011;24282;48.400;10.808;2024-01-30T00:40:57;8.20;;;6.30;;
38513;SDS011;24282;48.400;10.808;2024-01-30T00:43:23;8.33;;;5.17;;
38513;SDS011;24282;48.400;10.808;2024-01-30T00:45:50;7.90;;;5.63;;
38513;SDS011;24282;48.400;10.808;2024-01-30T00:48:17;8.90;;;5.30;;
38513;SDS011;24282;48.400;10.808;2024-01-30T00:50:42;7.97;;;5.30;;
38513;SDS011;24282;48.400;10.808;2024-01-30T00:53:08;8.03;;;5.73;;
38513;SDS011;24282;48.400;10.808;2024-01-30T00:55:34;7.97;;;5.13;;
38513;SDS011;24282;48.400;10.808;2024-01-30T00:58:00;7.90;;;4.60;;
38513;SDS011;24282;48.400;10.808;2024-01-30T01:00:26;6.60;;;4.97;;
38513;SDS011;24282;48.400;10.808;2024-01-30T01:02:55;6.87;;;4.30;;
38513;SDS011;24282;48.400;10.808;2024-01-30T01:05:21;7.70;;;4.57;;
38513;SDS011;24282;48.400;10.808;2024-01-30T01:07:46;6.57;;;4.50;;
38513;SDS011;24282;48.400;10.808;2024-01-30T01:10:16;6.93;;;4.90;;
38513;SDS011;24282;48.400;10.808;2024-01-30T01:12:43;5.77;;;4.47;;
38513;SDS011;24282;48.400;10.808;2024-01-30T01:15:10;6.47;;;4.40;;
38513;SDS011;24282;48.400;10.808;2024-01-30T01:17:36;8.60;;;4.50;;
38513;SDS011;24282;48.400;10.808;2024-01-30T01:20:03;6.97;;;5.23;;
38513;SDS011;24282;48.400;10.808;2024-01-30T01:22:30;6.30;;;5.00;;
38513;SDS011;24282;48.400;10.808;2024-01-30T01:24:56;6.73;;;4.73;;
38513;SDS011;24282;48.400;10.808;2024-01-30T01:27:22;5.93;;;4.73;;
38513;SDS011;24282;48.400;10.808;2024-01-30T01:29:48;8.40;;;5.13;;
38513;SDS011;24282;48.400;10.808;2024-01-30T01:32:13;7.60;;;5.10;;
38513;SDS011;24282;48.400;10.808;2024-01-30T01:34:39;11.10;;;5.73;;
38513;SDS011;24282;48.400;10.808;2024-01-30T01:37:05;7.63;;;5.50;;
38513;SDS011;24282;48.400;10.808;2024-01-30T01:39:30;7.63;;;4.93;;
38513;SDS011;24282;48.400;10.808;2024-01-30T01:41:56;7.77;;;5.80;;
38513;SDS011;24282;48.400;10.808;2024-01-30T01:44:22;7.57;;;5.57;;
38513;SDS011;24282;48.400;10.808;2024-01-30T01:46:47;7.53;;;5.50;;
38513;SDS011;24282;48.400;10.808;2024-01-30T01:49:14;7.87;;;5.47;;
38513;SDS011;24282;48.400;10.808;2024-01-30T01:51:40;7.27;;;4.73;;
38513;SDS011;24282;48.400;10.808;2024-01-30T01:54:07;7.73;;;5.53;;
38513;SDS011;24282;48.400;10.808;2024-01-30T01:56:34;7.47;;;5.40;;
38513;SDS011;24282;48.400;10.808;2024-01-30T01:59:04;7.90;;;5.20;;
38513;SDS011;24282;48.400;10.808;2024-01-30T02:01:32;7.37;;;4.80;;
38513;SDS011;24282;48.400;10.808;2024-01-30T02:03:59;8.07;;;5.30;;
38513;SDS011;24282;48.400;10.808;2024-01-30T02:06:25;7.53;;;4.93;;
38513;SDS011;24282;48.400;10.808;2024-01-30T02:08:51;7.40;;;4.87;;
38513;SDS011;24282;48.400;10.808;2024-01-30T02:11:17;6.93;;;4.90;;
38513;SDS011;24282;48.400;10.808;2024-01-30T02:13:44;6.33;;;4.60;;
38513;SDS011;24282;48.400;10.808;2024-01-30T02:16:10;6.80;;;4.90;;
38513;SDS011;24282;48.400;10.808;2024-01-30T02:18:36;7.17;;;5.17;;
38513;SDS011;24282;48.400;10.808;2024-01-30T02:21:07;6.27;;;4.87;;
38513;SDS011;24282;48.400;10.808;2024-01-30T02:23:33;7.60;;;5.40;;
38513;SDS011;24282;48.400;10.808;2024-01-30T02:25:59;7.80;;;5.13;;
38513;SDS011;24282;48.400;10.808;2024-01-30T02:28:25;5.97;;;4.60;;
38513;SDS011;24282;48.400;10.808;2024-01-30T02:30:52;6.60;;;5.00;;
38513;SDS011;24282;48.400;10.808;2024-01-30T02:33:18;7.23;;;5.43;;
38513;SDS011;24282;48.400;10.808;2024-01-30T02:35:44;7.50;;;5.30;;
38513;SDS011;24282;48.400;10.808;2024-01-30T02:38:10;9.20;;;5.93;;
38513;SDS011;24282;48.400;10.808;2024-01-30T02:40:36;11.13;;;7.47;;
38513;SDS011;24282;48.400;10.808;2024-01-30T02:43:02;12.20;;;7.60;;
38513;SDS011;24282;48.400;10.808;2024-01-30T02:45:28;11.50;;;7.47;;
38513;SDS011;24282;48.400;10.808;2024-01-30T02:47:54;9.07;;;6.70;;
38513;SDS011;24282;48.400;10.808;2024-01-30T02:50:20;11.37;;;7.80;;
38513;SDS011;24282;48.400;10.808;2024-01-30T02:52:45;14.20;;;7.57;;
38513;SDS011;24282;48.400;10.808;2024-01-30T02:55:11;12.20;;;8.40;;
38513;SDS011;24282;48.400;10.808;2024-01-30T02:57:40;12.47;;;7.67;;
38513;SDS011;24282;48.400;10.808;2024-01-30T03:00:06;9.37;;;6.63;;
38513;SDS011;24282;48.400;10.808;2024-01-30T03:02:34;9.67;;;6.00;;
38513;SDS011;24282;48.400;10.808;2024-01-30T03:05:01;9.67;;;6.57;;
38513;SDS011;24282;48.400;10.808;2024-01-30T03:07:26;8.77;;;5.30;;
38513;SDS011;24282;48.400;10.808;2024-01-30T03:09:52;8.33;;;5.30;;
38513;SDS011;24282;48.400;10.808;2024-01-30T03:12:20;6.97;;;5.40;;
38513;SDS011;24282;48.400;10.808;2024-01-30T03:14:46;6.80;;;5.17;;
38513;SDS011;24282;48.400;10.808;2024-01-30T03:17:12;6.50;;;5.10;;
38513;SDS011;24282;48.400;10.808;2024-01-30T03:19:38;7.20;;;5.00;;
38513;SDS011;24282;48.400;10.808;2024-01-30T03:22:04;7.33;;;5.00;;
38513;SDS011;24282;48.400;10.808;2024-01-30T03:24:30;8.17;;;5.43;;
38513;SDS011;24282;48.400;10.808;2024-01-30T03:26:56;8.77;;;6.10;;
38513;SDS011;24282;48.400;10.808;2024-01-30T03:29:21;7.83;;;5.70;;
38513;SDS011;24282;48.400;10.808;2024-01-30T03:31:47;8.60;;;5.80;;
38513;SDS011;24282;48.400;10.808;2024-01-30T03:34:13;8.97;;;5.63;;
38513;SDS011;24282;48.400;10.808;2024-01-30T03:36:39;7.97;;;5.47;;
38513;SDS011;24282;48.400;10.808;2024-01-30T03:39:04;10.93;;;5.03;;
38513;SDS011;24282;48.400;10.808;2024-01-30T03:41:31;7.17;;;5.20;;
38513;SDS011;24282;48.400;10.808;2024-01-30T03:43:57;6.50;;;5.07;;
38513;SDS011;24282;48.400;10.808;2024-01-30T03:46:22;8.90;;;6.00;;
38513;SDS011;24282;48.400;10.808;2024-01-30T03:48:49;9.67;;;6.97;;
38513;SDS011;24282;48.400;10.808;2024-01-30T03:51:15;11.23;;;7.40;;
38513;SDS011;24282;48.400;10.808;2024-01-30T03:53:44;10.53;;;7.83;;
38513;SDS011;24282;48.400;10.808;2024-01-30T03:56:11;11.83;;;9.07;;
38513;SDS011;24282;48.400;10.808;2024-01-30T03:58:40;11.13;;;7.87;;
38513;SDS011;24282;48.400;10.808;2024-01-30T04:01:06;11.80;;;7.60;;
38513;SDS011;24282;48.400;10.808;2024-01-30T04:03:32;9.00;;;6.40;;
38513;SDS011;24282;48.400;10.808;2024-01-30T04:05:58;7.80;;;6.30;;
38513;SDS011;24282;48.400;10.808;2024-01-30T04:08:24;8.50;;;6.03;;
38513;SDS011;24282;48.400;10.808;2024-01-30T04:10:49;11.23;;;7.70;;
38513;SDS011;24282;48.400;10.808;2024-01-30T04:13:15;9.90;;;6.93;;
38513;SDS011;24282;48.400;10.808;2024-01-30T04:15:41;11.60;;;7.70;;
38513;SDS011;24282;48.400;10.808;2024-01-30T04:18:07;11.93;;;7.97;;
38513;SDS011;24282;48.400;10.808;2024-01-30T04:20:32;9.10;;;6.90;;
38513;SDS011;24282;48.400;10.808;2024-01-30T04:22:58;11.33;;;7.03;;
38513;SDS011;24282;48.400;10.808;2024-01-30T04:25:24;9.67;;;6.13;;
38513;SDS011;24282;48.400;10.808;2024-01-30T04:27:49;8.13;;;5.70;;
38513;SDS011;24282;48.400;10.808;2024-01-30T04:30:15;6.90;;;4.77;;
38513;SDS011;24282;48.400;10.808;2024-01-30T04:32:41;8.13;;;5.40;;
38513;SDS011;24282;48.400;10.808;2024-01-30T04:35:07;8.30;;;5.23;;
38513;SDS011;24282;48.400;10.808;2024-01-30T04:37:33;6.13;;;4.77;;
38513;SDS011;24282;48.400;10.808;2024-01-30T04:39:59;8.17;;;5.37;;
38513;SDS011;24282;48.400;10.808;2024-01-30T04:42:24;7.03;;;5.10;;
38513;SDS011;24282;48.400;10.808;2024-01-30T04:44:50;7.13;;;4.90;;
38513;SDS011;24282;48.400;10.808;2024-01-30T04:47:16;7.47;;;5.17;;
38513;SDS011;24282;48.400;10.808;2024-01-30T04:49:42;7.57;;;4.90;;
38513;SDS011;24282;48.400;10.808;2024-01-30T04:52:08;6.63;;;5.00;;
38513;SDS011;24282;48.400;10.808;2024-01-30T04:54:34;7.43;;;5.10;;
38513;SDS011;24282;48.400;10.808;2024-01-30T04:57:00;7.60;;;5.53;;
38513;SDS011;24282;48.400;10.808;2024-01-30T04:59:30;10.57;;;5.40;;
38513;SDS011;24282;48.400;10.808;2024-01-30T05:01:56;10.20;;;4.87;;
38513;SDS011;24282;48.400;10.808;2024-01-30T05:04:22;7.40;;;5.10;;
38513;SDS011;24282;48.400;10.808;2024-01-30T05:06:50;8.10;;;4.63;;
38513;SDS011;24282;48.400;10.808;2024-01-30T05:09:16;7.33;;;4.70;;
38513;SDS011;24282;48.400;10.808;2024-01-30T05:11:41;8.87;;;5.30;;
38513;SDS011;24282;48.400;10.808;2024-01-30T05:14:07;9.97;;;8.50;;
38513;SDS011;24282;48.400;10.808;2024-01-30T05:16:37;12.80;;;10.40;;
38513;SDS011;24282;48.400;10.808;2024-01-30T05:19:03;10.73;;;8.27;;
38513;SDS011;24282;48.400;10.808;2024-01-30T05:21:28;10.07;;;7.63;;
38513;SDS011;24282;48.400;10.808;2024-01-30T05:23:54;8.53;;;7.43;;
38513;SDS011;24282;48.400;10.808;2024-01-30T05:26:20;8.90;;;7.40;;
38513;SDS011;24282;48.400;10.808;2024-01-30T05:28:47;8.17;;;6.60;;
38513;SDS011;24282;48.400;10.808;2024-01-30T05:31:13;9.20;;;6.87;;
38513;SDS011;24282;48.400;10.808;2024-01-30T05:33:40;9.47;;;6.57;;
38513;SDS011;24282;48.400;10.808;2024-01-30T05:36:06;7.67;;;6.17;;
38513;SDS011;24282;48.400;10.808;2024-01-30T05:38:32;8.33;;;5.83;;
38513;SDS011;24282;48.400;10.808;2024-01-30T05:40:57;7.80;;;5.70;;
38513;SDS011;24282;48.400;10.808;2024-01-30T05:43:24;8.33;;;5.60;;
38513;SDS011;24282;48.400;10.808;2024-01-30T05:45:50;7.33;;;5.40;;
38513;SDS011;24282;48.400;10.808;2024-01-30T05:48:16;11.33;;;5.40;;
38513;SDS011;24282;48.400;10.808;2024-01-30T05:50:42;6.80;;;5.37;;
38513;SDS011;24282;48.400;10.808;2024-01-30T05:53:08;9.20;;;5.93;;
38513;SDS011;24282;48.400;10.808;2024-01-30T05:55:33;8.00;;;5.73;;
38513;SDS011;24282;48.400;10.808;2024-01-30T05:57:59;8.77;;;5.50;;
38513;SDS011;24282;48.400;10.808;2024-01-30T06:00:25;13.30;;;9.37;;
38513;SDS011;24282;48.400;10.808;2024-01-30T06:02:51;12.70;;;8.77;;
38513;SDS011;24282;48.400;10.808;2024-01-30T06:05:16;13.00;;;8.87;;
38513;SDS011;24282;48.400;10.808;2024-01-30T06:07:42;14.83;;;8.80;;
38513;SDS011;24282;48.400;10.808;2024-01-30T06:10:08;12.47;;;8.97;;
38513;SDS011;24282;48.400;10.808;2024-01-30T06:12:37;14.17;;;8.77;;
38513;SDS011;24282;48.400;10.808;2024-01-30T06:15:03;13.77;;;9.57;;
38513;SDS011;24282;48.400;10.808;2024-01-30T06:17:29;18.77;;;10.97;;
38513;SDS011;24282;48.400;10.808;2024-01-30T06:19:55;14.77;;;10.30;;
38513;SDS011;24282;48.400;10.808;2024-01-30T06:22:21;13.63;;;10.30;;
38513;SDS011;24282;48.400;10.808;2024-01-30T06:24:46;12.00;;;9.20;;
38513;SDS011;24282;48.400;10.808;2024-01-30T06:27:15;16.40;;;10.53;;
38513;SDS011;24282;48.400;10.808;2024-01-30T06:29:42;11.43;;;8.70;;
38513;SDS011;24282;48.400;10.808;2024-01-30T06:32:08;11.17;;;7.40;;
38513;SDS011;24282;48.400;10.808;2024-01-30T06:34:34;9.33;;;7.00;;
38513;SDS011;24282;48.400;10.808;2024-01-30T06:36:59;13.73;;;8.57;;
38513;SDS011;24282;48.400;10.808;2024-01-30T06:39:26;10.97;;;7.50;;
38513;SDS011;24282;48.400;10.808;2024-01-30T06:41:52;10.63;;;7.47;;
38513;SDS011;24282;48.400;10.808;2024-01-30T06:44:17;10.83;;;6.50;;
38513;SDS011;24282;48.400;10.808;2024-01-30T06:46:43;7.87;;;6.93;;
38513;SDS011;24282;48.400;10.808;2024-01-30T06:49:09;7.67;;;6.07;;
38513;SDS011;24282;48.400;10.808;2024-01-30T06:51:34;9.17;;;6.73;;
38513;SDS011;24282;48.400;10.808;2024-01-30T06:54:00;9.77;;;6.70;;
38513;SDS011;24282;48.400;10.808;2024-01-30T06:56:26;9.50;;;7.10;;
38513;SDS011;24282;48.400;10.808;2024-01-30T06:58:52;10.50;;;6.70;;
38513;SDS011;24282;48.400;10.808;2024-01-30T07:01:17;9.27;;;6.53;;
38513;SDS011;24282;48.400;10.808;2024-01-30T07:03:43;8.73;;;6.60;;
38513;SDS011;24282;48.400;10.808;2024-01-30T07:06:09;8.40;;;6.63;;
38513;SDS011;24282;48.400;10.808;2024-01-30T07:08:38;9.73;;;6.03;;
38513;SDS011;24282;48.400;10.808;2024-01-30T07:11:05;9.13;;;6.10;;
38513;SDS011;24282;48.400;10.808;2024-01-30T07:13:31;6.60;;;5.40;;
38513;SDS011;24282;48.400;10.808;2024-01-30T07:15:57;7.80;;;5.60;;
38513;SDS011;24282;48.400;10.808;2024-01-30T07:18:23;8.10;;;5.40;;
38513;SDS011;24282;48.400;10.808;2024-01-30T07:20:48;7.60;;;5.40;;
38513;SDS011;24282;48.400;10.808;2024-01-30T07:23:15;7.47;;;5.17;;
38513;SDS011;24282;48.400;10.808;2024-01-30T07:25:45;5.90;;;4.40;;
38513;SDS011;24282;48.400;10.808;2024-01-30T07:28:14;6.70;;;4.60;;
38513;SDS011;24282;48.400;10.808;2024-01-30T07:30:42;7.70;;;4.70;;
38513;SDS011;24282;48.400;10.808;2024-01-30T07:33:08;6.60;;;4.80;;
38513;SDS011;24282;48.400;10.808;2024-01-30T07:35:34;7.03;;;4.30;;
38513;SDS011;24282;48.400;10.808;2024-01-30T07:38:00;6.20;;;4.40;;
38513;SDS011;24282;48.400;10.808;2024-01-30T07:40:26;7.60;;;5.27;;
38513;SDS011;24282;48.400;10.808;2024-01-30T07:42:53;7.67;;;5.20;;
38513;SDS011;24282;48.400;10.808;2024-01-30T07:45:19;7.23;;;5.13;;
38513;SDS011;24282;48.400;10.808;2024-01-30T07:47:49;8.57;;;6.30;;
38513;SDS011;24282;48.400;10.808;2024-01-30T07:50:16;9.33;;;6.47;;
38513;SDS011;24282;48.400;10.808;2024-01-30T07:52:42;9.33;;;7.00;;
38513;SDS011;24282;48.400;10.808;2024-01-30T07:55:08;10.60;;;6.93;;
38513;SDS011;24282;48.400;10.808;2024-01-30T07:57:34;10.00;;;7.10;;
38513;SDS011;24282;48.400;10.808;2024-01-30T08:00:00;12.47;;;7.70;;
38513;SDS011;24282;48.400;10.808;2024-01-30T08:02:32;9.87;;;6.80;;
38513;SDS011;24282;48.400;10.808;2024-01-30T08:04:58;8.27;;;6.40;;
38513;SDS011;24282;48.400;10.808;2024-01-30T08:07:23;8.30;;;6.20;;
38513;SDS011;24282;48.400;10.808;2024-01-30T08:09:49;7.67;;;5.83;;
38513;SDS011;24282;48.400;10.808;2024-01-30T08:12:15;11.23;;;6.80;;
38513;SDS011;24282;48.400;10.808;2024-01-30T08:14:41;6.77;;;5.23;;
38513;SDS011;24282;48.400;10.808;2024-01-30T08:17:09;8.30;;;6.67;;
38513;SDS011;24282;48.400;10.808;2024-01-30T08:19:35;8.57;;;5.90;;
38513;SDS011;24282;48.400;10.808;2024-01-30T08:22:00;8.43;;;5.43;;
38513;SDS011;24282;48.400;10.808;2024-01-30T08:24:26;6.93;;;5.63;;
38513;SDS011;24282;48.400;10.808;2024-01-30T08:26:52;9.07;;;5.43;;
38513;SDS011;24282;48.400;10.808;2024-01-30T08:29:17;8.70;;;5.83;;
38513;SDS011;24282;48.400;10.808;2024-01-30T08:31:43;7.63;;;5.60;;
38513;SDS011;24282;48.400;10.808;2024-01-30T08:34:10;8.20;;;5.97;;
38513;SDS011;24282;48.400;10.808;2024-01-30T08:36:36;8.10;;;6.20;;
38513;SDS011;24282;48.400;10.808;2024-01-30T08:39:02;9.20;;;6.50;;
38513;SDS011;24282;48.400;10.808;2024-01-30T08:41:28;11.37;;;6.07;;
38513;SDS011;24282;48.400;10.808;2024-01-30T08:43:53;8.43;;;5.63;;
38513;SDS011;24282;48.400;10.808;2024-01-30T08:46:19;7.00;;;5.17;;
38513;SDS011;24282;48.400;10.808;2024-01-30T08:48:45;7.43;;;5.40;;
38513;SDS011;24282;48.400;10.808;2024-01-30T08:51:11;7.87;;;6.07;;
38513;SDS011;24282;48.400;10.808;2024-01-30T08:53:37;9.07;;;6.17;;
38513;SDS011;24282;48.400;10.808;2024-01-30T08:56:03;7.57;;;5.90;;
38513;SDS011;24282;48.400;10.808;2024-01-30T08:58:29;8.03;;;5.57;;
38513;SDS011;24282;48.400;10.808;2024-01-30T09:00:55;8.67;;;6.20;;
38513;SDS011;24282;48.400;10.808;2024-01-30T09:03:21;9.23;;;5.70;;
38513;SDS011;24282;48.400;10.808;2024-01-30T09:05:47;8.67;;;6.17;;
38513;SDS011;24282;48.400;10.808;2024-01-30T09:08:12;8.27;;;5.83;;
38513;SDS011;24282;48.400;10.808;2024-01-30T09:10:38;8.50;;;5.63;;
38513;SDS011;24282;48.400;10.808;2024-01-30T09:13:04;7.87;;;5.67;;
38513;SDS011;24282;48.400;10.808;2024-01-30T09:15:30;7.13;;;5.13;;
38513;SDS011;24282;48.400;10.808;2024-01-30T09:17:55;8.13;;;5.83;;
38513;SDS011;24282;48.400;10.808;2024-01-30T09:20:21;8.60;;;5.40;;
38513;SDS011;24282;48.400;10.808;2024-01-30T09:22:48;7.50;;;5.13;;
38513;SDS011;24282;48.400;10.808;2024-01-30T09:25:14;5.83;;;4.53;;
38513;SDS011;24282;48.400;10.808;2024-01-30T09:27:40;7.70;;;5.13;;
38513;SDS011;24282;48.400;10.808;2024-01-30T09:30:06;7.37;;;4.90;;
38513;SDS011;24282;48.400;10.808;2024-01-30T09:32:33;6.33;;;4.60;;
38513;SDS011;24282;48.400;10.808;2024-01-30T09:34:58;7.33;;;5.23;;
38513;SDS011;24282;48.400;10.808;2024-01-30T09:37:24;6.60;;;5.03;;
38513;SDS011;24282;48.400;10.808;2024-01-30T09:39:50;6.57;;;5.07;;
38513;SDS011;24282;48.400;10.808;2024-01-30T09:42:31;6.83;;;4.80;;
38513;SDS011;24282;48.400;10.808;2024-01-30T09:45:03;8.53;;;4.57;;
38513;SDS011;24282;48.400;10.808;2024-01-30T09:47:35;7.63;;;5.37;;
38513;SDS011;24282;48.400;10.808;2024-01-30T09:50:08;6.60;;;4.80;;
38513;SDS011;24282;48.400;10.808;2024-01-30T09:52:34;6.73;;;4.73;;
38513;SDS011;24282;48.400;10.808;2024-01-30T09:55:00;6.37;;;4.63;;
38513;SDS011;24282;48.400;10.808;2024-01-30T09:57:27;6.13;;;4.80;;
38513;SDS011;24282;48.400;10.808;2024-01-30T09:59:53;7.17;;;4.70;;
38513;SDS011;24282;48.400;10.808;2024-01-30T10:02:22;7.43;;;5.00;;
38513;SDS011;24282;48.400;10.808;2024-01-30T10:04:48;7.20;;;5.23;;
38513;SDS011;24282;48.400;10.808;2024-01-30T10:07:15;6.53;;;4.77;;
38513;SDS011;24282;48.400;10.808;2024-01-30T10:09:41;7.27;;;4.27;;
38513;SDS011;24282;48.400;10.808;2024-01-30T10:12:08;6.30;;;4.37;;
38513;SDS011;24282;48.400;10.808;2024-01-30T10:17:25;7.27;;;4.53;;
38513;SDS011;24282;48.400;10.808;2024-01-30T10:19:52;5.83;;;4.27;;
38513;SDS011;24282;48.400;10.808;2024-01-30T10:22:18;5.97;;;4.30;;
38513;SDS011;24282;48.400;10.808;2024-01-30T10:24:44;7.90;;;4.53;;
38513;SDS011;24282;48.400;10.808;2024-01-30T10:27:10;7.00;;;5.00;;
38513;SDS011;24282;48.400;10.808;2024-01-30T10:29:37;7.30;;;5.23;;
38513;SDS011;24282;48.400;10.808;2024-01-30T10:32:03;5.67;;;4.27;;
38513;SDS011;24282;48.400;10.808;2024-01-30T10:34:31;6.60;;;4.63;;
38513;SDS011;24282;48.400;10.808;2024-01-30T10:37:18;5.40;;;4.10;;
38513;SDS011;24282;48.400;10.808;2024-01-30T10:39:44;5.93;;;4.10;;
38513;SDS011;24282;48.400;10.808;2024-01-30T10:42:11;5.47;;;4.23;;
38513;SDS011;24282;48.400;10.808;2024-01-30T10:47:27;7.53;;;4.63;;
38513;SDS011;24282;48.400;10.808;2024-01-30T10:49:54;8.17;;;5.23;;
38513;SDS011;24282;48.400;10.808;2024-01-30T10:52:21;6.90;;;4.93;;
38513;SDS011;24282;48.400;10.808;2024-01-30T10:54:50;8.50;;;5.83;;
38513;SDS011;24282;48.400;10.808;2024-01-30T10:57:17;8.87;;;5.10;;
38513;SDS011;24282;48.400;10.808;2024-01-30T10:59:43;7.97;;;5.43;;
38513;SDS011;24282;48.400;10.808;2024-01-30T11:02:10;7.33;;;4.70;;
38513;SDS011;24282;48.400;10.808;2024-01-30T11:04:36;7.30;;;5.03;;
38513;SDS011;24282;48.400;10.808;2024-01-30T11:07:25;6.63;;;3.90;;
38513;SDS011;24282;48.400;10.808;2024-01-30T11:09:51;5.20;;;4.00;;
38513;SDS011;24282;48.400;10.808;2024-01-30T11:12:23;6.67;;;3.93;;
38513;SDS011;24282;48.400;10.808;2024-01-30T11:14:50;6.63;;;4.40;;
38513;SDS011;24282;48.400;10.808;2024-01-30T11:20:09;6.37;;;4.23;;
38513;SDS011;24282;48.400;10.808;2024-01-30T11:22:37;8.93;;;4.47;;
38513;SDS011;24282;48.400;10.808;2024-01-30T11:25:02;6.33;;;4.10;;
38513;SDS011;24282;48.400;10.808;2024-01-30T11:27:30;7.13;;;4.63;;
38513;SDS011;24282;48.400;10.808;2024-01-30T11:30:03;5.00;;;3.90;;
38513;SDS011;24282;48.400;10.808;2024-01-30T11:32:29;5.75;;;3.85;;
38513;SDS011;24282;48.400;10.808;2024-01-30T11:34:55;5.70;;;3.80;;
38513;SDS011;24282;48.400;10.808;2024-01-30T11:37:21;6.83;;;4.43;;
38513;SDS011;24282;48.400;10.808;2024-01-30T11:39:50;6.40;;;4.27;;
38513;SDS011;24282;48.400;10.808;2024-01-30T11:42:17;5.70;;;3.87;;
38513;SDS011;24282;48.400;10.808;2024-01-30T11:44:47;5.10;;;3.80;;
38513;SDS011;24282;48.400;10.808;2024-01-30T11:47:14;5.50;;;4.17;;
38513;SDS011;24282;48.400;10.808;2024-01-30T11:49:40;6.33;;;4.47;;
38513;SDS011;24282;48.400;10.808;2024-01-30T11:52:05;6.10;;;4.10;;
38513;SDS011;24282;48.400;10.808;2024-01-30T11:54:31;7.40;;;4.30;;
38513;SDS011;24282;48.400;10.808;2024-01-30T11:56:57;6.63;;;4.67;;
38513;SDS011;24282;48.400;10.808;2024-01-30T11:59:23;6.87;;;5.00;;
38513;SDS011;24282;48.400;10.808;2024-01-30T12:01:51;7.27;;;5.60;;
38513;SDS011;24282;48.400;10.808;2024-01-30T12:04:17;6.90;;;4.87;;
38513;SDS011;24282;48.400;10.808;2024-01-30T12:06:43;6.73;;;4.90;;
38513;SDS011;24282;48.400;10.808;2024-01-30T12:09:09;5.87;;;4.30;;
38513;SDS011;24282;48.400;10.808;2024-01-30T12:11:49;6.17;;;4.50;;
38513;SDS011;24282;48.400;10.808;2024-01-30T12:14:16;7.07;;;3.67;;
38513;SDS011;24282;48.400;10.808;2024-01-30T12:16:42;6.80;;;4.10;;
38513;SDS011;24282;48.400;10.808;2024-01-30T12:19:07;7.50;;;4.67;;
38513;SDS011;24282;48.400;10.808;2024-01-30T12:21:34;6.97;;;4.57;;
38513;SDS011;24282;48.400;10.808;2024-01-30T12:24:00;5.43;;;4.30;;
38513;SDS011;24282;48.400;10.808;2024-01-30T12:26:26;5.90;;;4.00;;
38513;SDS011;24282;48.400;10.808;2024-01-30T12:28:55;5.53;;;3.63;;
38513;SDS011;24282;48.400;10.808;2024-01-30T12:31:26;6.30;;;4.17;;
38513;SDS011;24282;48.400;10.808;2024-01-30T12:33:53;7.57;;;4.00;;
38513;SDS011;24282;48.400;10.808;2024-01-30T12:36:19;5.57;;;3.83;;
38513;SDS011;24282;48.400;10.808;2024-01-30T12:38:45;7.90;;;3.70;;
38513;SDS011;24282;48.400;10.808;2024-01-30T12:41:11;4.90;;;3.27;;
38513;SDS011;24282;48.400;10.808;2024-01-30T12:43:37;4.83;;;3.23;;
38513;SDS011;24282;48.400;10.808;2024-01-30T12:46:03;5.77;;;3.30;;
38513;SDS011;24282;48.400;10.808;2024-01-30T12:48:28;5.20;;;3.57;;
38513;SDS011;24282;48.400;10.808;2024-01-30T12:50:55;6.77;;;4.43;;
38513;SDS011;24282;48.400;10.808;2024-01-30T12:53:21;5.73;;;3.67;;
38513;SDS011;24282;48.400;10.808;2024-01-30T12:55:47;6.70;;;3.80;;
38513;SDS011;24282;48.400;10.808;2024-01-30T12:58:15;5.83;;;4.00;;
38513;SDS011;24282;48.400;10.808;2024-01-30T13:00:41;7.93;;;4.47;;
38513;SDS011;24282;48.400;10.808;2024-01-30T13:03:10;8.87;;;3.60;;
38513;SDS011;24282;48.400;10.808;2024-01-30T13:05:36;7.47;;;4.60;;
38513;SDS011;24282;48.400;10.808;2024-01-30T13:08:02;6.83;;;4.23;;
38513;SDS011;24282;48.400;10.808;2024-01-30T13:10:28;7.73;;;4.60;;
38513;SDS011;24282;48.400;10.808;2024-01-30T13:12:54;5.97;;;4.33;;
38513;SDS011;24282;48.400;10.808;2024-01-30T13:15:19;7.57;;;4.60;;
38513;SDS011;24282;48.400;10.808;2024-01-30T13:17:47;6.10;;;4.13;;
38513;SDS011;24282;48.400;10.808;2024-01-30T13:20:14;7.10;;;3.83;;
38513;SDS011;24282;48.400;10.808;2024-01-30T13:22:44;5.80;;;4.33;;
38513;SDS011;24282;48.400;10.808;2024-01-30T13:25:10;6.57;;;4.13;;
38513;SDS011;24282;48.400;10.808;2024-01-30T13:27:36;5.47;;;3.93;;
38513;SDS011;24282;48.400;10.808;2024-01-30T13:30:02;6.67;;;3.97;;
38513;SDS011;24282;48.400;10.808;2024-01-30T13:32:29;7.37;;;5.03;;
38513;SDS011;24282;48.400;10.808;2024-01-30T13:34:54;5.90;;;4.10;;
38513;SDS011;24282;48.400;10.808;2024-01-30T13:37:21;6.40;;;4.43;;
38513;SDS011;24282;48.400;10.808;2024-01-30T13:39:47;6.83;;;4.43;;
38513;SDS011;24282;48.400;10.808;2024-01-30T13:42:13;5.93;;;3.93;;
38513;SDS011;24282;48.400;10.808;2024-01-30T13:44:39;5.13;;;3.90;;
38513;SDS011;24282;48.400;10.808;2024-01-30T13:47:04;6.63;;;3.60;;
38513;SDS011;24282;48.400;10.808;2024-01-30T13:49:30;5.97;;;3.43;;
38513;SDS011;24282;48.400;10.808;2024-01-30T13:51:56;4.47;;;3.33;;
38513;SDS011;24282;48.400;10.808;2024-01-30T13:54:23;5.57;;;4.10;;
38513;SDS011;24282;48.400;10.808;2024-01-30T13:56:49;9.50;;;4.20;;
38513;SDS011;24282;48.400;10.808;2024-01-30T13:59:14;5.00;;;3.83;;
38513;SDS011;24282;48.400;10.808;2024-01-30T14:01:40;7.63;;;3.80;;
38513;SDS011;24282;48.400;10.808;2024-01-30T14:04:06;7.67;;;3.80;;
38513;SDS011;24282;48.400;10.808;2024-01-30T14:06:31;6.67;;;3.97;;
38513;SDS011;24282;48.400;10.808;2024-01-30T14:08:57;7.37;;;4.20;;
38513;SDS011;24282;48.400;10.808;2024-01-30T14:11:23;5.97;;;4.37;;
38513;SDS011;24282;48.400;10.808;2024-01-30T14:13:49;6.73;;;3.70;;
38513;SDS011;24282;48.400;10.808;2024-01-30T14:16:15;4.90;;;3.20;;
38513;SDS011;24282;48.400;10.808;2024-01-30T14:18:41;5.53;;;3.63;;
38513;SDS011;24282;48.400;10.808;2024-01-30T14:21:07;9.03;;;4.10;;
38513;SDS011;24282;48.400;10.808;2024-01-30T14:23:33;8.70;;;4.23;;
38513;SDS011;24282;48.400;10.808;2024-01-30T14:25:59;6.33;;;3.57;;
38513;SDS011;24282;48.400;10.808;2024-01-30T14:28:25;6.20;;;4.53;;
38513;SDS011;24282;48.400;10.808;2024-01-30T14:30:50;5.73;;;4.33;;
38513;SDS011;24282;48.400;10.808;2024-01-30T14:33:16;5.63;;;3.90;;
38513;SDS011;24282;48.400;10.808;2024-01-30T14:35:42;5.93;;;3.57;;
38513;SDS011;24282;48.400;10.808;2024-01-30T14:38:08;4.33;;;3.37;;